KAMA/AMA METAR and TAF weather

Enter ICAO airport designator
Station Type Date Time Source
KAMA METAR 2019/10/20 18:53 UTC NOAA

KAMA 201853Z 26015G29KT 10SM CLR 23/M06 A2968 RMK AO2 PK WND 28029/1849 SLP011 T02331056


Station Type Date Time Source
KAMA Decoded METAR 2019/10/20 18:53 UTC NOAA

AMARILLO INTERNATIONAL AIRPORT, TX, United States (KAMA) 35-13N 101-43W 1093M
Oct 20, 2019 - 02:53 PM EDT / 2019.10.20 1853 UTC
Wind: from the W (260 degrees) at 17 MPH (15 KT) gusting to 33 MPH (29 KT):0
Visibility: 10 mile(s):0
Sky conditions: clear
Temperature: 73.9 F (23.3 C)
Dew Point: 21.9 F (-5.6 C)
Relative Humidity: 14%
Pressure (altimeter): 29.68 in. Hg (1005 hPa)
ob: KAMA 201853Z 26015G29KT 10SM CLR 23/M06 A2968 RMK AO2 PK WND 28029/1849 SLP011 T02331056
cycle: 19

Station Type Date Time Source
KAMA TAF 2019/10/20 18:30 UTC NOAA

TAF KAMA 201729Z 2018/2118 25018G28KT P6SM BKN200
FM202000 27020G30KT P6SM SCT200
FM210200 30015KT P6SM FEW250

Example: see airport list